sensor_id;sensor_type;location;lat;lon;timestamp;pressure;altitude;pressure_sealevel;temperature;humidity
79799;BME280;69283;48.024;11.090;2023-12-22T00:01:40;93912.50;;;6.21;76.57
79799;BME280;69283;48.024;11.090;2023-12-22T00:04:05;93925.25;;;6.24;76.56
79799;BME280;69283;48.024;11.090;2023-12-22T00:06:32;93917.19;;;6.24;76.45
79799;BME280;69283;48.024;11.090;2023-12-22T00:08:57;93920.22;;;6.23;77.49
79799;BME280;69283;48.024;11.090;2023-12-22T00:11:23;93919.09;;;6.24;78.08
79799;BME280;69283;48.024;11.090;2023-12-22T00:13:48;93921.56;;;6.17;79.25
79799;BME280;69283;48.024;11.090;2023-12-22T00:16:18;93919.91;;;6.12;80.66
79799;BME280;69283;48.024;11.090;2023-12-22T00:18:43;93924.97;;;6.14;80.86
79799;BME280;69283;48.024;11.090;2023-12-22T00:21:10;93944.03;;;6.08;81.11
79799;BME280;69283;48.024;11.090;2023-12-22T00:23:36;93963.63;;;6.09;80.88
79799;BME280;69283;48.024;11.090;2023-12-22T00:26:03;93974.06;;;6.10;81.28
79799;BME280;69283;48.024;11.090;2023-12-22T00:28:28;93950.00;;;6.02;80.29
79799;BME280;69283;48.024;11.090;2023-12-22T00:30:53;93955.16;;;5.95;81.22
79799;BME280;69283;48.024;11.090;2023-12-22T00:33:19;93939.81;;;5.95;82.61
79799;BME280;69283;48.024;11.090;2023-12-22T00:35:44;93935.53;;;5.94;83.00
79799;BME280;69283;48.024;11.090;2023-12-22T00:38:09;93946.31;;;5.82;82.28
79799;BME280;69283;48.024;11.090;2023-12-22T00:40:35;93954.81;;;5.84;82.64
79799;BME280;69283;48.024;11.090;2023-12-22T00:43:01;93960.75;;;5.77;81.63
79799;BME280;69283;48.024;11.090;2023-12-22T00:45:26;93983.97;;;5.82;81.95
79799;BME280;69283;48.024;11.090;2023-12-22T00:47:54;93977.81;;;5.57;81.29
79799;BME280;69283;48.024;11.090;2023-12-22T00:50:19;93977.16;;;5.48;81.67
79799;BME280;69283;48.024;11.090;2023-12-22T00:52:47;93987.22;;;5.39;80.13
79799;BME280;69283;48.024;11.090;2023-12-22T00:55:12;93982.31;;;5.41;80.23
79799;BME280;69283;48.024;11.090;2023-12-22T00:57:38;93997.41;;;5.21;79.75
79799;BME280;69283;48.024;11.090;2023-12-22T01:00:04;93986.88;;;5.04;80.73
79799;BME280;69283;48.024;11.090;2023-12-22T01:02:30;93991.09;;;4.93;80.36
79799;BME280;69283;48.024;11.090;2023-12-22T01:04:56;94007.41;;;5.00;80.62
79799;BME280;69283;48.024;11.090;2023-12-22T01:07:21;94007.19;;;4.93;80.92
79799;BME280;69283;48.024;11.090;2023-12-22T01:09:46;94014.91;;;4.82;81.15
79799;BME280;69283;48.024;11.090;2023-12-22T01:12:12;94032.25;;;4.84;81.08
79799;BME280;69283;48.024;11.090;2023-12-22T01:14:37;94017.78;;;4.77;80.01
79799;BME280;69283;48.024;11.090;2023-12-22T01:17:03;94017.09;;;4.68;80.42
79799;BME280;69283;48.024;11.090;2023-12-22T01:19:28;94020.13;;;4.78;80.90
79799;BME280;69283;48.024;11.090;2023-12-22T01:21:54;94014.31;;;4.76;80.73
79799;BME280;69283;48.024;11.090;2023-12-22T01:24:21;94028.16;;;4.78;81.28
79799;BME280;69283;48.024;11.090;2023-12-22T01:26:47;93995.16;;;4.66;81.81
79799;BME280;69283;48.024;11.090;2023-12-22T01:29:12;94010.66;;;4.81;80.92
79799;BME280;69283;48.024;11.090;2023-12-22T01:31:37;94014.41;;;4.80;81.53
79799;BME280;69283;48.024;11.090;2023-12-22T01:34:03;94012.22;;;4.82;81.52
79799;BME280;69283;48.024;11.090;2023-12-22T01:36:28;94013.97;;;4.78;81.80
79799;BME280;69283;48.024;11.090;2023-12-22T01:38:53;94026.09;;;4.84;82.38
79799;BME280;69283;48.024;11.090;2023-12-22T01:41:19;94021.63;;;4.88;82.57
79799;BME280;69283;48.024;11.090;2023-12-22T01:43:44;94034.94;;;4.97;82.32
79799;BME280;69283;48.024;11.090;2023-12-22T01:46:10;94007.31;;;4.96;82.60
79799;BME280;69283;48.024;11.090;2023-12-22T01:48:37;94026.22;;;5.00;81.93
79799;BME280;69283;48.024;11.090;2023-12-22T01:51:04;94015.94;;;5.02;81.80
79799;BME280;69283;48.024;11.090;2023-12-22T01:53:30;94006.78;;;5.03;82.21
79799;BME280;69283;48.024;11.090;2023-12-22T01:55:58;94000.97;;;5.01;82.14
79799;BME280;69283;48.024;11.090;2023-12-22T01:58:26;94006.91;;;5.06;82.23
79799;BME280;69283;48.024;11.090;2023-12-22T02:00:52;93993.59;;;5.10;82.22
79799;BME280;69283;48.024;11.090;2023-12-22T02:03:18;93987.66;;;5.04;82.64
79799;BME280;69283;48.024;11.090;2023-12-22T02:05:44;93985.19;;;5.11;82.75
79799;BME280;69283;48.024;11.090;2023-12-22T02:08:13;93977.25;;;5.15;82.43
79799;BME280;69283;48.024;11.090;2023-12-22T02:10:40;93977.91;;;5.12;82.38
79799;BME280;69283;48.024;11.090;2023-12-22T02:13:06;93978.34;;;5.14;83.20
79799;BME280;69283;48.024;11.090;2023-12-22T02:15:33;93997.16;;;5.14;83.22
79799;BME280;69283;48.024;11.090;2023-12-22T02:18:08;93988.66;;;5.12;83.75
79799;BME280;69283;48.024;11.090;2023-12-22T02:20:34;93998.06;;;5.18;84.22
79799;BME280;69283;48.024;11.090;2023-12-22T02:22:59;93984.44;;;5.23;83.70
79799;BME280;69283;48.024;11.090;2023-12-22T02:25:25;93996.16;;;5.31;84.15
79799;BME280;69283;48.024;11.090;2023-12-22T02:27:53;94008.84;;;5.42;84.53
79799;BME280;69283;48.024;11.090;2023-12-22T02:30:51;94027.41;;;5.35;83.77
79799;BME280;69283;48.024;11.090;2023-12-22T02:33:18;94029.75;;;5.37;83.17
79799;BME280;69283;48.024;11.090;2023-12-22T02:35:44;94014.75;;;5.24;81.39
79799;BME280;69283;48.024;11.090;2023-12-22T02:38:12;94019.97;;;5.08;80.22
79799;BME280;69283;48.024;11.090;2023-12-22T02:40:38;94021.97;;;4.99;80.33
79799;BME280;69283;48.024;11.090;2023-12-22T02:43:05;94016.13;;;4.84;79.57
79799;BME280;69283;48.024;11.090;2023-12-22T02:45:30;94024.13;;;4.72;79.92
79799;BME280;69283;48.024;11.090;2023-12-22T02:47:57;94009.59;;;4.73;80.92
79799;BME280;69283;48.024;11.090;2023-12-22T02:50:22;94016.81;;;4.81;80.86
79799;BME280;69283;48.024;11.090;2023-12-22T02:52:47;94017.47;;;4.91;80.88
79799;BME280;69283;48.024;11.090;2023-12-22T02:55:13;94006.97;;;4.85;81.35
79799;BME280;69283;48.024;11.090;2023-12-22T02:57:38;93985.28;;;4.91;80.60
79799;BME280;69283;48.024;11.090;2023-12-22T03:00:04;93997.13;;;4.89;81.56
79799;BME280;69283;48.024;11.090;2023-12-22T03:02:32;93994.09;;;4.91;81.58
79799;BME280;69283;48.024;11.090;2023-12-22T03:04:57;94000.69;;;4.94;82.93
79799;BME280;69283;48.024;11.090;2023-12-22T03:07:22;93997.34;;;4.97;83.57
79799;BME280;69283;48.024;11.090;2023-12-22T03:09:47;94003.09;;;5.07;83.35
79799;BME280;69283;48.024;11.090;2023-12-22T03:12:13;93998.28;;;5.01;82.50
79799;BME280;69283;48.024;11.090;2023-12-22T03:14:38;94009.31;;;4.87;80.60
79799;BME280;69283;48.024;11.090;2023-12-22T03:17:05;93990.06;;;4.85;80.88
79799;BME280;69283;48.024;11.090;2023-12-22T03:19:31;93997.78;;;4.86;80.39
79799;BME280;69283;48.024;11.090;2023-12-22T03:21:57;94004.69;;;4.75;79.95
79799;BME280;69283;48.024;11.090;2023-12-22T03:24:23;94011.16;;;4.74;79.85
79799;BME280;69283;48.024;11.090;2023-12-22T03:26:49;94001.97;;;4.63;80.35
79799;BME280;69283;48.024;11.090;2023-12-22T03:29:14;93996.47;;;4.59;79.59
79799;BME280;69283;48.024;11.090;2023-12-22T03:31:40;94014.72;;;4.66;79.25
79799;BME280;69283;48.024;11.090;2023-12-22T03:34:06;94033.06;;;4.64;78.74
79799;BME280;69283;48.024;11.090;2023-12-22T03:36:31;93994.25;;;4.62;77.55
79799;BME280;69283;48.024;11.090;2023-12-22T03:38:56;93980.88;;;4.74;77.82
79799;BME280;69283;48.024;11.090;2023-12-22T03:41:22;94001.31;;;4.66;77.18
79799;BME280;69283;48.024;11.090;2023-12-22T03:43:47;94013.72;;;4.71;76.86
79799;BME280;69283;48.024;11.090;2023-12-22T03:46:12;93994.06;;;4.67;75.27
79799;BME280;69283;48.024;11.090;2023-12-22T03:48:37;94008.03;;;4.72;76.88
79799;BME280;69283;48.024;11.090;2023-12-22T03:51:03;94005.81;;;4.74;76.15
79799;BME280;69283;48.024;11.090;2023-12-22T03:53:28;94025.31;;;4.83;76.17
79799;BME280;69283;48.024;11.090;2023-12-22T03:55:54;94008.28;;;4.79;74.72
79799;BME280;69283;48.024;11.090;2023-12-22T03:58:20;94011.06;;;4.71;75.73
79799;BME280;69283;48.024;11.090;2023-12-22T04:00:45;94025.38;;;4.75;76.61
79799;BME280;69283;48.024;11.090;2023-12-22T04:03:10;94028.94;;;4.79;76.52
79799;BME280;69283;48.024;11.090;2023-12-22T04:05:35;94024.63;;;4.86;76.16
79799;BME280;69283;48.024;11.090;2023-12-22T04:08:01;94037.59;;;4.84;75.99
79799;BME280;69283;48.024;11.090;2023-12-22T04:10:26;94042.63;;;4.86;76.60
79799;BME280;69283;48.024;11.090;2023-12-22T04:12:52;94039.97;;;4.86;76.44
79799;BME280;69283;48.024;11.090;2023-12-22T04:15:17;94031.56;;;4.87;76.21
79799;BME280;69283;48.024;11.090;2023-12-22T04:17:42;94040.41;;;5.00;77.08
79799;BME280;69283;48.024;11.090;2023-12-22T04:20:10;94050.94;;;4.93;76.66
79799;BME280;69283;48.024;11.090;2023-12-22T04:22:36;94031.91;;;4.98;76.49
79799;BME280;69283;48.024;11.090;2023-12-22T04:25:01;94029.56;;;4.97;77.05
79799;BME280;69283;48.024;11.090;2023-12-22T04:27:26;94018.38;;;4.95;77.95
79799;BME280;69283;48.024;11.090;2023-12-22T04:29:52;94017.63;;;5.06;77.49
79799;BME280;69283;48.024;11.090;2023-12-22T04:32:19;94006.09;;;5.06;78.35
79799;BME280;69283;48.024;11.090;2023-12-22T04:34:45;94022.22;;;5.06;77.92
79799;BME280;69283;48.024;11.090;2023-12-22T04:37:10;94011.59;;;5.09;78.23
79799;BME280;69283;48.024;11.090;2023-12-22T04:39:35;94021.09;;;5.07;77.93
79799;BME280;69283;48.024;11.090;2023-12-22T04:42:01;94032.50;;;5.16;78.27
79799;BME280;69283;48.024;11.090;2023-12-22T04:44:28;94024.47;;;5.04;78.09
79799;BME280;69283;48.024;11.090;2023-12-22T04:46:53;94033.75;;;5.18;77.84
79799;BME280;69283;48.024;11.090;2023-12-22T04:49:18;94029.31;;;5.23;77.70
79799;BME280;69283;48.024;11.090;2023-12-22T04:51:44;94035.19;;;5.16;77.43
79799;BME280;69283;48.024;11.090;2023-12-22T04:54:09;94024.25;;;5.21;76.91
79799;BME280;69283;48.024;11.090;2023-12-22T04:56:34;94022.66;;;5.20;76.52
79799;BME280;69283;48.024;11.090;2023-12-22T04:59:00;94051.78;;;5.30;76.23
79799;BME280;69283;48.024;11.090;2023-12-22T05:01:25;94048.44;;;5.33;75.99
79799;BME280;69283;48.024;11.090;2023-12-22T05:03:50;94041.06;;;5.30;74.86
79799;BME280;69283;48.024;11.090;2023-12-22T05:06:16;94037.13;;;5.28;74.70
79799;BME280;69283;48.024;11.090;2023-12-22T05:08:42;94062.09;;;5.28;74.74
79799;BME280;69283;48.024;11.090;2023-12-22T05:11:09;94051.34;;;5.28;75.33
79799;BME280;69283;48.024;11.090;2023-12-22T05:13:34;94052.59;;;5.31;74.72
79799;BME280;69283;48.024;11.090;2023-12-22T05:16:00;94068.69;;;5.31;74.64
79799;BME280;69283;48.024;11.090;2023-12-22T05:18:25;94059.19;;;5.33;75.49
79799;BME280;69283;48.024;11.090;2023-12-22T05:20:50;94061.41;;;5.31;76.11
79799;BME280;69283;48.024;11.090;2023-12-22T05:23:20;94062.44;;;5.27;75.88
79799;BME280;69283;48.024;11.090;2023-12-22T05:25:45;94061.41;;;5.31;75.72
79799;BME280;69283;48.024;11.090;2023-12-22T05:28:11;94060.94;;;5.17;76.38
79799;BME280;69283;48.024;11.090;2023-12-22T05:30:36;94058.69;;;5.19;76.29
79799;BME280;69283;48.024;11.090;2023-12-22T05:33:01;94057.81;;;5.15;76.09
79799;BME280;69283;48.024;11.090;2023-12-22T05:35:27;94051.53;;;5.11;76.64
79799;BME280;69283;48.024;11.090;2023-12-22T05:37:52;94058.69;;;5.19;76.05
79799;BME280;69283;48.024;11.090;2023-12-22T05:40:17;94080.44;;;5.26;76.59
79799;BME280;69283;48.024;11.090;2023-12-22T05:42:43;94064.84;;;5.19;76.21
79799;BME280;69283;48.024;11.090;2023-12-22T05:45:08;94067.34;;;5.25;77.70
79799;BME280;69283;48.024;11.090;2023-12-22T05:47:36;94074.03;;;5.18;78.06
79799;BME280;69283;48.024;11.090;2023-12-22T05:50:01;94065.88;;;5.15;78.49
79799;BME280;69283;48.024;11.090;2023-12-22T05:52:26;94072.22;;;5.10;78.13
79799;BME280;69283;48.024;11.090;2023-12-22T05:54:52;94084.53;;;5.11;78.93
79799;BME280;69283;48.024;11.090;2023-12-22T05:57:17;94073.03;;;5.11;79.04
79799;BME280;69283;48.024;11.090;2023-12-22T05:59:42;94085.53;;;5.07;78.98
79799;BME280;69283;48.024;11.090;2023-12-22T06:02:08;94078.16;;;5.04;79.40
79799;BME280;69283;48.024;11.090;2023-12-22T06:04:33;94089.34;;;5.06;78.90
79799;BME280;69283;48.024;11.090;2023-12-22T06:06:59;94068.19;;;5.04;79.53
79799;BME280;69283;48.024;11.090;2023-12-22T06:09:25;94095.16;;;5.08;79.29
79799;BME280;69283;48.024;11.090;2023-12-22T06:11:51;94123.72;;;5.12;79.13
79799;BME280;69283;48.024;11.090;2023-12-22T06:14:16;94103.78;;;5.13;78.99
79799;BME280;69283;48.024;11.090;2023-12-22T06:16:41;94103.22;;;5.08;78.82
79799;BME280;69283;48.024;11.090;2023-12-22T06:19:07;94108.03;;;5.14;79.43
79799;BME280;69283;48.024;11.090;2023-12-22T06:21:32;94103.56;;;5.18;79.66
79799;BME280;69283;48.024;11.090;2023-12-22T06:23:57;94103.56;;;5.18;78.97
79799;BME280;69283;48.024;11.090;2023-12-22T06:26:23;94096.00;;;5.21;78.63
79799;BME280;69283;48.024;11.090;2023-12-22T06:28:48;94111.78;;;5.22;78.05
79799;BME280;69283;48.024;11.090;2023-12-22T06:31:19;94109.44;;;5.21;78.20
79799;BME280;69283;48.024;11.090;2023-12-22T06:33:45;94114.78;;;5.21;77.47
79799;BME280;69283;48.024;11.090;2023-12-22T06:36:24;94127.41;;;5.20;78.08
79799;BME280;69283;48.024;11.090;2023-12-22T06:38:53;94144.97;;;5.17;78.20
79799;BME280;69283;48.024;11.090;2023-12-22T06:41:25;94126.31;;;5.21;78.24
79799;BME280;69283;48.024;11.090;2023-12-22T06:43:51;94144.00;;;5.22;78.16
79799;BME280;69283;48.024;11.090;2023-12-22T06:46:23;94130.56;;;5.22;76.94
79799;BME280;69283;48.024;11.090;2023-12-22T06:48:52;94142.09;;;5.23;77.38
79799;BME280;69283;48.024;11.090;2023-12-22T06:51:26;94140.53;;;5.22;77.55
79799;BME280;69283;48.024;11.090;2023-12-22T06:53:52;94146.22;;;5.20;77.35
79799;BME280;69283;48.024;11.090;2023-12-22T06:56:19;94129.84;;;5.13;77.52
79799;BME280;69283;48.024;11.090;2023-12-22T06:58:45;94130.75;;;5.17;77.15
79799;BME280;69283;48.024;11.090;2023-12-22T07:01:35;94137.97;;;5.25;77.25
79799;BME280;69283;48.024;11.090;2023-12-22T07:04:02;94136.91;;;5.17;77.48
79799;BME280;69283;48.024;11.090;2023-12-22T07:06:30;94155.09;;;5.21;77.41
79799;BME280;69283;48.024;11.090;2023-12-22T07:08:58;94152.91;;;5.14;76.79
79799;BME280;69283;48.024;11.090;2023-12-22T07:11:46;94165.22;;;5.15;77.44
79799;BME280;69283;48.024;11.090;2023-12-22T07:14:11;94162.81;;;5.22;78.35
79799;BME280;69283;48.024;11.090;2023-12-22T07:16:37;94149.13;;;5.15;78.69
79799;BME280;69283;48.024;11.090;2023-12-22T07:19:03;94159.63;;;5.08;78.68
79799;BME280;69283;48.024;11.090;2023-12-22T07:21:29;94184.69;;;5.12;79.28
79799;BME280;69283;48.024;11.090;2023-12-22T07:23:54;94184.69;;;5.12;79.76
79799;BME280;69283;48.024;11.090;2023-12-22T07:26:20;94190.94;;;5.04;79.92
79799;BME280;69283;48.024;11.090;2023-12-22T07:28:47;94186.84;;;4.98;80.88
79799;BME280;69283;48.024;11.090;2023-12-22T07:31:13;94177.22;;;4.97;81.01
79799;BME280;69283;48.024;11.090;2023-12-22T07:33:39;94172.84;;;4.92;81.23
79799;BME280;69283;48.024;11.090;2023-12-22T07:36:08;94201.13;;;4.89;80.84
79799;BME280;69283;48.024;11.090;2023-12-22T07:38:34;94208.06;;;4.91;81.56
79799;BME280;69283;48.024;11.090;2023-12-22T07:41:04;94210.31;;;4.88;80.86
79799;BME280;69283;48.024;11.090;2023-12-22T07:43:30;94224.31;;;4.94;80.91
79799;BME280;69283;48.024;11.090;2023-12-22T07:45:55;94221.50;;;4.91;81.69
79799;BME280;69283;48.024;11.090;2023-12-22T07:48:21;94231.44;;;4.90;81.75
79799;BME280;69283;48.024;11.090;2023-12-22T07:50:46;94211.94;;;4.81;81.27
79799;BME280;69283;48.024;11.090;2023-12-22T07:53:26;94254.63;;;4.95;81.26
79799;BME280;69283;48.024;11.090;2023-12-22T07:55:55;94234.59;;;4.92;81.25
79799;BME280;69283;48.024;11.090;2023-12-22T07:58:29;94253.72;;;4.91;80.90
79799;BME280;69283;48.024;11.090;2023-12-22T08:00:55;94264.25;;;4.96;81.15
79799;BME280;69283;48.024;11.090;2023-12-22T08:03:20;94251.16;;;4.94;80.49
79799;BME280;69283;48.024;11.090;2023-12-22T08:05:48;94266.94;;;4.96;80.70
79799;BME280;69283;48.024;11.090;2023-12-22T08:08:16;94265.81;;;4.97;81.76
79799;BME280;69283;48.024;11.090;2023-12-22T08:10:52;94272.97;;;4.93;81.25
79799;BME280;69283;48.024;11.090;2023-12-22T08:13:17;94285.47;;;4.88;82.39
79799;BME280;69283;48.024;11.090;2023-12-22T08:15:46;94294.13;;;4.94;82.50
79799;BME280;69283;48.024;11.090;2023-12-22T08:18:11;94279.44;;;4.92;82.17
79799;BME280;69283;48.024;11.090;2023-12-22T08:20:37;94289.06;;;4.93;82.10
79799;BME280;69283;48.024;11.090;2023-12-22T08:23:03;94304.53;;;4.96;81.69
79799;BME280;69283;48.024;11.090;2023-12-22T08:25:29;94292.03;;;5.00;82.10
79799;BME280;69283;48.024;11.090;2023-12-22T08:27:55;94293.47;;;4.97;82.13
79799;BME280;69283;48.024;11.090;2023-12-22T08:30:20;94299.63;;;4.98;81.83
79799;BME280;69283;48.024;11.090;2023-12-22T08:32:46;94305.94;;;5.02;81.90
79799;BME280;69283;48.024;11.090;2023-12-22T08:35:11;94301.84;;;4.96;81.23
79799;BME280;69283;48.024;11.090;2023-12-22T08:37:36;94316.34;;;5.03;81.98
79799;BME280;69283;48.024;11.090;2023-12-22T08:40:02;94317.91;;;5.04;80.86
79799;BME280;69283;48.024;11.090;2023-12-22T08:42:29;94314.25;;;5.09;81.51
79799;BME280;69283;48.024;11.090;2023-12-22T08:44:55;94303.38;;;5.05;81.67
79799;BME280;69283;48.024;11.090;2023-12-22T08:47:20;94336.19;;;5.11;81.12
79799;BME280;69283;48.024;11.090;2023-12-22T08:49:46;94328.13;;;5.11;81.06
79799;BME280;69283;48.024;11.090;2023-12-22T08:52:21;94333.75;;;5.18;80.72
79799;BME280;69283;48.024;11.090;2023-12-22T08:54:47;94337.09;;;5.15;80.21
79799;BME280;69283;48.024;11.090;2023-12-22T08:57:12;94326.34;;;5.15;80.81
79799;BME280;69283;48.024;11.090;2023-12-22T08:59:37;94330.28;;;5.17;80.35
79799;BME280;69283;48.024;11.090;2023-12-22T09:02:03;94329.66;;;5.21;79.77
79799;BME280;69283;48.024;11.090;2023-12-22T09:04:28;94332.81;;;5.23;79.04
79799;BME280;69283;48.024;11.090;2023-12-22T09:06:54;94358.56;;;5.24;79.43
79799;BME280;69283;48.024;11.090;2023-12-22T09:09:22;94379.72;;;5.25;80.49
79799;BME280;69283;48.024;11.090;2023-12-22T09:11:49;94379.63;;;5.13;81.23
79799;BME280;69283;48.024;11.090;2023-12-22T09:14:14;94377.19;;;5.20;81.06
79799;BME280;69283;48.024;11.090;2023-12-22T09:16:40;94371.19;;;5.23;81.82
79799;BME280;69283;48.024;11.090;2023-12-22T09:19:06;94364.88;;;5.19;82.14
79799;BME280;69283;48.024;11.090;2023-12-22T09:21:31;94365.41;;;5.12;81.92
79799;BME280;69283;48.024;11.090;2023-12-22T09:23:56;94358.97;;;5.05;82.29
79799;BME280;69283;48.024;11.090;2023-12-22T09:26:22;94331.47;;;5.08;82.51
79799;BME280;69283;48.024;11.090;2023-12-22T09:28:47;94336.50;;;5.09;82.94
79799;BME280;69283;48.024;11.090;2023-12-22T09:31:13;94329.84;;;5.15;82.92
79799;BME280;69283;48.024;11.090;2023-12-22T09:33:39;94315.56;;;5.03;83.05
79799;BME280;69283;48.024;11.090;2023-12-22T09:36:05;94314.25;;;5.09;83.63
79799;BME280;69283;48.024;11.090;2023-12-22T09:38:31;94314.19;;;5.17;83.07
79799;BME280;69283;48.024;11.090;2023-12-22T09:40:56;94294.78;;;5.12;82.20
79799;BME280;69283;48.024;11.090;2023-12-22T09:43:22;94296.03;;;5.14;82.23
79799;BME280;69283;48.024;11.090;2023-12-22T09:45:49;94299.31;;;5.20;82.25
79799;BME280;69283;48.024;11.090;2023-12-22T09:48:17;94308.31;;;5.24;82.72
79799;BME280;69283;48.024;11.090;2023-12-22T09:50:46;94307.66;;;5.27;82.20
79799;BME280;69283;48.024;11.090;2023-12-22T09:53:14;94290.75;;;5.27;82.09
79799;BME280;69283;48.024;11.090;2023-12-22T09:55:45;94308.56;;;5.31;81.95
79799;BME280;69283;48.024;11.090;2023-12-22T09:58:14;94311.44;;;5.26;81.63
79799;BME280;69283;48.024;11.090;2023-12-22T10:00:40;94314.91;;;5.27;81.26
79799;BME280;69283;48.024;11.090;2023-12-22T10:03:06;94326.91;;;5.29;81.85
79799;BME280;69283;48.024;11.090;2023-12-22T10:05:33;94328.81;;;5.29;82.12
79799;BME280;69283;48.024;11.090;2023-12-22T10:08:00;94314.34;;;5.21;82.14
79799;BME280;69283;48.024;11.090;2023-12-22T10:10:28;94306.72;;;5.23;82.31
79799;BME280;69283;48.024;11.090;2023-12-22T10:12:58;94287.31;;;5.17;81.91
79799;BME280;69283;48.024;11.090;2023-12-22T10:15:24;94285.09;;;5.19;82.88
79799;BME280;69283;48.024;11.090;2023-12-22T10:17:51;94308.31;;;5.24;82.64
79799;BME280;69283;48.024;11.090;2023-12-22T10:20:17;94282.94;;;5.13;82.12
79799;BME280;69283;48.024;11.090;2023-12-22T10:22:42;94293.47;;;5.18;83.07
79799;BME280;69283;48.024;11.090;2023-12-22T10:25:08;94288.75;;;5.15;82.41
79799;BME280;69283;48.024;11.090;2023-12-22T10:27:35;94293.47;;;5.18;83.20
79799;BME280;69283;48.024;11.090;2023-12-22T10:30:02;94287.00;;;5.19;82.36
79799;BME280;69283;48.024;11.090;2023-12-22T10:32:28;94280.81;;;5.18;83.42
79799;BME280;69283;48.024;11.090;2023-12-22T10:34:53;94280.03;;;5.18;82.73
79799;BME280;69283;48.024;11.090;2023-12-22T10:37:20;94273.72;;;5.23;82.42
79799;BME280;69283;48.024;11.090;2023-12-22T10:39:46;94255.38;;;5.25;82.30
79799;BME280;69283;48.024;11.090;2023-12-22T10:42:14;94264.25;;;5.16;82.61
79799;BME280;69283;48.024;11.090;2023-12-22T10:44:40;94267.56;;;5.22;82.07
79799;BME280;69283;48.024;11.090;2023-12-22T10:47:06;94294.53;;;5.26;81.17
79799;BME280;69283;48.024;11.090;2023-12-22T10:49:32;94283.00;;;5.25;82.51
79799;BME280;69283;48.024;11.090;2023-12-22T10:51:59;94265.84;;;5.17;82.45
79799;BME280;69283;48.024;11.090;2023-12-22T10:54:24;94277.63;;;5.25;82.33
79799;BME280;69283;48.024;11.090;2023-12-22T10:56:50;94243.09;;;5.15;82.88
79799;BME280;69283;48.024;11.090;2023-12-22T10:59:35;94266.13;;;5.25;82.99
79799;BME280;69283;48.024;11.090;2023-12-22T11:02:04;94269.59;;;5.25;83.18
79799;BME280;69283;48.024;11.090;2023-12-22T11:04:30;94274.50;;;5.23;82.45
79799;BME280;69283;48.024;11.090;2023-12-22T11:06:59;94272.84;;;5.31;81.89
79799;BME280;69283;48.024;11.090;2023-12-22T11:09:31;94259.94;;;5.24;81.94
79799;BME280;69283;48.024;11.090;2023-12-22T11:11:57;94249.66;;;5.26;81.99
79799;BME280;69283;48.024;11.090;2023-12-22T11:14:23;94243.19;;;5.27;82.12
79799;BME280;69283;48.024;11.090;2023-12-22T11:16:49;94257.19;;;5.33;82.13
79799;BME280;69283;48.024;11.090;2023-12-22T11:19:17;94269.59;;;5.25;81.98
79799;BME280;69283;48.024;11.090;2023-12-22T11:21:43;94257.41;;;5.28;82.20
79799;BME280;69283;48.024;11.090;2023-12-22T11:24:11;94263.00;;;5.35;82.60
79799;BME280;69283;48.024;11.090;2023-12-22T11:26:38;94255.75;;;5.35;82.47
79799;BME280;69283;48.024;11.090;2023-12-22T11:29:05;94275.66;;;5.34;83.01
79799;BME280;69283;48.024;11.090;2023-12-22T11:31:32;94258.88;;;5.37;82.56
79799;BME280;69283;48.024;11.090;2023-12-22T11:33:58;94253.38;;;5.34;82.95
79799;BME280;69283;48.024;11.090;2023-12-22T11:36:24;94260.78;;;5.37;82.68
79799;BME280;69283;48.024;11.090;2023-12-22T11:38:53;94248.66;;;5.31;82.33
79799;BME280;69283;48.024;11.090;2023-12-22T11:41:34;94255.75;;;5.35;82.52
79799;BME280;69283;48.024;11.090;2023-12-22T11:44:01;94246.69;;;5.40;83.35
79799;BME280;69283;48.024;11.090;2023-12-22T11:46:29;94247.22;;;5.33;82.30
79799;BME280;69283;48.024;11.090;2023-12-22T11:48:55;94238.84;;;5.35;83.03
79799;BME280;69283;48.024;11.090;2023-12-22T11:51:31;94236.59;;;5.37;82.83
79799;BME280;69283;48.024;11.090;2023-12-22T11:53:57;94225.97;;;5.40;82.77
79799;BME280;69283;48.024;11.090;2023-12-22T11:56:24;94245.13;;;5.39;83.29
79799;BME280;69283;48.024;11.090;2023-12-22T11:58:52;94218.78;;;5.32;82.64
79799;BME280;69283;48.024;11.090;2023-12-22T12:01:21;94223.50;;;5.35;83.22
79799;BME280;69283;48.024;11.090;2023-12-22T12:08:51;94226.63;;;5.37;82.30
79799;BME280;69283;48.024;11.090;2023-12-22T12:11:19;94225.06;;;5.36;82.99
79799;BME280;69283;48.024;11.090;2023-12-22T12:13:46;94234.53;;;5.42;82.90
79799;BME280;69283;48.024;11.090;2023-12-22T12:16:14;94229.25;;;5.46;82.64
79799;BME280;69283;48.024;11.090;2023-12-22T12:18:41;94233.59;;;5.38;83.47
79799;BME280;69283;48.024;11.090;2023-12-22T12:21:08;94235.47;;;5.38;83.58
79799;BME280;69283;48.024;11.090;2023-12-22T12:23:34;94223.44;;;5.44;82.80
79799;BME280;69283;48.024;11.090;2023-12-22T12:25:59;94225.97;;;5.40;83.50
79799;BME280;69283;48.024;11.090;2023-12-22T12:28:26;94225.06;;;5.36;83.55
79799;BME280;69283;48.024;11.090;2023-12-22T12:31:02;94231.31;;;5.28;83.98
79799;BME280;69283;48.024;11.090;2023-12-22T12:33:28;94236.47;;;5.33;84.11
79799;BME280;69283;48.024;11.090;2023-12-22T12:35:59;94240.16;;;5.29;84.05
79799;BME280;69283;48.024;11.090;2023-12-22T12:41:32;94213.84;;;5.22;84.39
79799;BME280;69283;48.024;11.090;2023-12-22T12:44:03;94216.31;;;5.27;84.01
79799;BME280;69283;48.024;11.090;2023-12-22T12:46:40;94199.16;;;5.19;83.97
79799;BME280;69283;48.024;11.090;2023-12-22T12:49:10;94198.22;;;5.15;83.14
79799;BME280;69283;48.024;11.090;2023-12-22T12:51:43;94192.34;;;5.22;83.96
79799;BME280;69283;48.024;11.090;2023-12-22T12:54:15;94191.25;;;5.23;84.62
79799;BME280;69283;48.024;11.090;2023-12-22T12:56:42;94196.28;;;5.25;83.71
79799;BME280;69283;48.024;11.090;2023-12-22T12:59:13;94166.34;;;5.14;84.06
79799;BME280;69283;48.024;11.090;2023-12-22T13:01:45;94165.00;;;5.20;83.87
79799;BME280;69283;48.024;11.090;2023-12-22T13:04:11;94146.94;;;5.29;84.73
79799;BME280;69283;48.024;11.090;2023-12-22T13:06:50;94127.41;;;5.20;83.91